Time;durP1;ratioP1;P1;durP2;ratioP2;P2;SDS_P1;SDS_P2;PMS_P1;PMS_P2;Temp;Humidity;BMP_temperature;BMP_pressure;BME280_temperature;BME280_humidity;BME280_pressure;Samples;Min_cycle;Max_cycle;Signal;HPM_P1;HPM_P2
2022/08/10 00:05:37;;;;;;;4.57;2.80;;;;;;;17.56;87.83;102519.00;5114334;28;20100;-75
2022/08/10 00:11:24;;;;;;;5.00;3.22;;;;;;;17.58;87.10;102522.31;5114304;28;20092;-75
2022/08/10 00:13:50;;;;;;;6.80;2.85;;;;;;;17.56;87.83;102527.94;5095630;28;20447;-75
2022/08/10 00:19:37;;;;;;;4.88;2.80;;;;;;;17.51;87.55;102519.66;5113858;28;20100;-75
2022/08/10 00:22:02;;;;;;;5.80;3.07;;;;;;;17.51;87.67;102527.78;5112878;28;20539;-75
2022/08/10 00:27:49;;;;;;;3.65;2.80;;;;;;;17.46;87.40;102514.09;5113075;28;20071;-75
2022/08/10 00:33:36;;;;;;;4.38;2.95;;;;;;;17.42;87.47;102512.03;5113146;28;20123;-75
2022/08/10 00:36:02;;;;;;;5.23;3.00;;;;;;;17.40;87.23;102506.03;5113189;28;20138;-75
2022/08/10 00:41:49;;;;;;;3.97;2.83;;;;;;;17.36;87.52;102508.34;5113732;28;20049;-75
2022/08/10 00:44:14;;;;;;;5.20;3.10;;;;;;;17.27;87.92;102504.22;5113211;28;20028;-75
2022/08/10 00:46:39;;;;;;;5.70;3.20;;;;;;;17.24;88.24;102510.91;5112515;28;20039;-75
2022/08/10 00:49:05;;;;;;;4.67;3.30;;;;;;;17.18;89.00;102508.25;5113174;28;20352;-75
2022/08/10 00:51:30;;;;;;;4.45;3.00;;;;;;;17.13;89.37;102499.97;5112448;28;20277;-75
2022/08/10 00:57:18;;;;;;;3.92;2.90;;;;;;;17.03;90.06;102503.94;5112827;28;20100;-75
2022/08/10 00:59:44;;;;;;;3.42;3.13;;;;;;;17.00;90.02;102507.06;5113094;28;20059;-75
2022/08/10 01:05:31;;;;;;;5.97;3.25;;;;;;;16.94;89.94;102499.84;5113578;28;20503;-74
2022/08/10 01:08:24;;;;;;;4.38;3.25;;;;;;;16.93;88.56;102502.75;5094643;28;20043;-74
2022/08/10 01:11:10;;;;;;;3.47;2.92;;;;;;;16.90;90.16;102500.47;5094218;28;20480;-75
2022/08/10 01:13:47;;;;;;;6.32;3.22;;;;;;;16.86;90.05;102496.56;5112954;28;20031;-75
2022/08/10 01:19:59;;;;;;;4.38;2.97;;;;;;;16.82;89.26;102489.94;5113457;28;20054;-75
2022/08/10 01:22:52;;;;;;;4.07;2.63;;;;;;;16.78;89.95;102492.25;5112007;28;20027;-75
2022/08/10 01:25:36;;;;;;;3.00;2.70;;;;;;;16.75;91.09;102489.94;5112778;28;20094;-75
2022/08/10 01:31:32;;;;;;;4.53;3.00;;;;;;;16.66;91.83;102492.06;5112720;28;20034;-75
2022/08/10 01:34:04;;;;;;;4.55;3.13;;;;;;;16.62;91.88;102490.81;5111884;28;20503;-75
2022/08/10 01:39:56;;;;;;;3.50;3.13;;;;;;;16.54;92.67;102492.91;5112900;28;20431;-74
2022/08/10 01:42:24;;;;;;;5.35;3.25;;;;;;;16.48;93.69;102488.34;5112590;28;20031;-74
2022/08/10 01:44:56;;;;;;;4.75;2.92;;;;;;;16.46;93.21;102487.72;5112472;28;20464;-74
2022/08/10 01:50:20;;;;;;;6.30;3.60;;;;;;;16.48;93.17;102493.75;5112462;28;20093;-74
2022/08/10 01:52:49;;;;;;;4.80;3.50;;;;;;;16.45;93.79;102483.38;5111629;28;20096;-75
2022/08/10 01:58:37;;;;;;;7.63;3.58;;;;;;;16.45;93.92;102486.06;5112680;28;20051;-75
2022/08/10 02:01:05;;;;;;;6.50;3.10;;;;;;;16.39;94.56;102491.28;5112166;28;20062;-75
2022/08/10 02:03:35;;;;;;;5.05;3.92;;;;;;;16.37;94.15;102493.38;5093280;28;20030;-75
2022/08/10 02:09:26;;;;;;;7.88;3.90;;;;;;;16.23;95.27;102482.84;5115958;28;20061;-75
2022/08/10 02:11:54;;;;;;;7.78;3.80;;;;;;;16.29;94.94;102492.78;5086570;28;20044;-75
2022/08/10 02:17:47;;;;;;;8.02;4.18;;;;;;;16.21;95.98;102490.31;5115862;28;20429;-75
2022/08/10 02:23:38;;;;;;;7.20;3.90;;;;;;;16.13;95.90;102483.25;5115905;28;20051;-75
2022/08/10 02:29:26;;;;;;;5.03;3.88;;;;;;;16.08;96.54;102473.09;5115897;28;20561;-75
2022/08/10 02:31:52;;;;;;;7.32;4.55;;;;;;;16.06;96.69;102472.47;5097110;28;20043;-76
2022/08/10 02:34:18;;;;;;;9.43;4.20;;;;;;;16.00;97.56;102488.69;5096327;28;20541;-76
2022/08/10 02:36:48;;;;;;;11.70;5.80;;;;;;;15.94;98.37;102486.81;5115330;28;20449;-76
2022/08/10 02:39:16;;;;;;;5.55;4.28;;;;;;;15.87;98.13;102478.72;5115304;28;20039;-76
2022/08/10 02:41:43;;;;;;;8.40;4.57;;;;;;;15.84;98.53;102486.41;5114512;28;20047;-76
2022/08/10 02:44:27;;;;;;;6.10;4.60;;;;;;;15.77;98.73;102479.13;5115269;28;20081;-76
2022/08/10 02:47:26;;;;;;;6.80;4.32;;;;;;;15.76;99.41;102487.44;5114487;28;20104;-76
2022/08/10 02:53:28;;;;;;;6.10;4.72;;;;;;;15.74;98.44;102484.13;5115426;28;20074;-75
2022/08/10 02:56:01;;;;;;;8.55;5.22;;;;;;;15.70;99.04;102483.72;5114976;28;20059;-75
2022/08/10 02:58:46;;;;;;;6.85;4.75;;;;;;;15.67;98.09;102467.13;5114137;28;20510;-75
2022/08/10 03:01:16;;;;;;;6.65;4.32;;;;;;;15.58;99.58;102455.69;5115053;28;20028;-75
2022/08/10 03:03:50;;;;;;;4.88;4.30;;;;;;;15.62;99.47;102465.06;5114847;28;20031;-76
2022/08/10 03:09:40;;;;;;;8.05;4.57;;;;;;;15.54;100.00;102451.72;5115287;28;20093;-75
2022/08/10 03:12:09;;;;;;;12.57;5.25;;;;;;;15.52;100.00;102456.50;5096016;28;20031;-75
2022/08/10 03:17:57;;;;;;;5.65;4.60;;;;;;;15.47;100.00;102459.81;5115238;28;20088;-75
2022/08/10 03:20:24;;;;;;;6.05;4.85;;;;;;;15.43;100.00;102449.66;5114580;28;20388;-75
2022/08/10 03:22:51;;;;;;;5.32;4.80;;;;;;;15.44;100.00;102456.72;5113699;28;20050;-75
2022/08/10 03:25:20;;;;;;;8.15;5.38;;;;;;;15.43;100.00;102453.19;5114580;28;20032;-75
2022/08/10 03:31:08;;;;;;;6.03;4.97;;;;;;;15.39;100.00;102456.50;5114689;28;20080;-75
2022/08/10 03:33:36;;;;;;;6.43;5.13;;;;;;;15.41;100.00;102457.13;5096198;28;20036;-75
2022/08/10 03:36:02;;;;;;;9.27;5.13;;;;;;;15.33;100.00;102441.16;5113602;28;20119;-75
2022/08/10 03:38:28;;;;;;;5.85;5.03;;;;;;;15.29;100.00;102432.63;5114493;28;20027;-76
2022/08/10 03:40:55;;;;;;;8.35;5.00;;;;;;;15.30;100.00;102449.63;5113602;28;20078;-76
2022/08/10 03:43:22;;;;;;;7.45;5.10;;;;;;;15.25;100.00;102446.72;5096104;28;20020;-75
2022/08/10 03:45:55;;;;;;;8.88;5.40;;;;;;;15.19;100.00;102459.16;5114207;28;20511;-75
2022/08/10 03:48:22;;;;;;;6.35;4.85;;;;;;;15.17;100.00;102453.97;5113448;28;20040;-75
2022/08/10 03:50:49;;;;;;;13.02;5.10;;;;;;;15.14;100.00;102459.78;5114173;28;20027;-75
2022/08/10 03:53:15;;;;;;;9.13;4.78;;;;;;;15.11;100.00;102443.19;5095284;28;20235;-75
2022/08/10 03:55:40;;;;;;;8.00;4.90;;;;;;;15.17;100.00;102459.38;5095687;28;20019;-75
2022/08/10 04:01:29;;;;;;;7.45;4.88;;;;;;;15.14;100.00;102456.25;5114598;28;20057;-75
2022/08/10 04:03:54;;;;;;;7.07;5.45;;;;;;;15.17;100.00;102458.53;5114010;28;20142;-75
2022/08/10 04:06:19;;;;;;;6.10;5.10;;;;;;;15.17;100.00;102469.31;5113201;28;20055;-75
2022/08/10 04:08:45;;;;;;;7.68;5.07;;;;;;;15.14;100.00;102467.88;5114051;28;20322;-75
2022/08/10 04:11:11;;;;;;;6.07;5.30;;;;;;;15.07;100.00;102461.63;5113186;28;20971;-75
2022/08/10 04:13:37;;;;;;;7.32;5.00;;;;;;;15.09;100.00;102459.56;5113742;28;20072;-75
2022/08/10 04:16:06;;;;;;;8.63;5.10;;;;;;;15.11;100.00;102457.50;5113766;28;20434;-75
2022/08/10 04:18:32;;;;;;;7.15;5.47;;;;;;;15.10;100.00;102458.53;5113007;28;20054;-75
2022/08/10 04:24:21;;;;;;;7.60;5.25;;;;;;;15.05;100.00;102461.00;5113953;28;20070;-75
2022/08/10 04:30:09;;;;;;;6.28;4.55;;;;;;;15.09;100.00;102467.66;5113309;28;20125;-77
2022/08/10 04:32:35;;;;;;;7.82;5.05;;;;;;;15.06;100.00;102465.38;5113590;28;20442;-76
2022/08/10 04:38:25;;;;;;;5.82;4.63;;;;;;;15.12;100.00;102464.53;5113695;28;20122;-75
2022/08/10 04:47:33;;;;;;;6.35;4.65;;;;;;;15.28;100.00;102463.31;5113646;28;20530;-76
2022/08/10 04:49:58;;;;;;;5.60;4.63;;;;;;;15.34;100.00;102469.78;5113238;28;20110;-75
2022/08/10 04:52:24;;;;;;;6.13;4.70;;;;;;;15.41;100.00;102460.66;5113217;28;20269;-75
2022/08/10 04:54:49;;;;;;;8.93;5.17;;;;;;;15.48;100.00;102449.88;5112455;28;20308;-73
2022/08/10 05:00:36;;;;;;;6.95;4.88;;;;;;;15.89;100.00;102455.06;5113159;28;20269;-74
2022/08/10 05:03:01;;;;;;;9.10;4.85;;;;;;;16.09;100.00;102460.44;5112927;28;20039;-75
2022/08/10 05:05:26;;;;;;;6.57;5.10;;;;;;;16.41;99.81;102458.66;5112258;28;20043;-75
2022/08/10 05:07:52;;;;;;;9.75;5.00;;;;;;;16.81;98.19;102467.50;5112894;28;20528;-75
2022/08/10 05:10:17;;;;;;;5.70;4.73;;;;;;;17.15;96.65;102455.44;5112946;28;20369;-75
2022/08/10 05:12:42;;;;;;;6.63;5.13;;;;;;;17.58;95.19;102466.34;5112046;28;20276;-75
2022/08/10 05:15:10;;;;;;;10.20;5.17;;;;;;;17.98;93.54;102462.50;5112808;28;20023;-75
2022/08/10 05:17:36;;;;;;;7.03;5.13;;;;;;;18.43;90.51;102465.72;5093909;28;20669;-75
2022/08/10 05:20:04;;;;;;;7.50;4.75;;;;;;;18.87;88.19;102470.00;5112775;28;20027;-75
2022/08/10 05:22:29;;;;;;;9.85;5.22;;;;;;;19.22;85.93;102462.00;5094414;28;20030;-75
2022/08/10 05:24:54;;;;;;;10.90;5.07;;;;;;;19.62;84.07;102456.78;5111887;28;20032;-75
2022/08/10 05:27:20;;;;;;;11.17;4.83;;;;;;;20.00;81.79;102460.94;5112786;28;20034;-75
2022/08/10 05:29:45;;;;;;;7.17;4.77;;;;;;;20.35;79.76;102463.59;5111848;28;20050;-76
2022/08/10 05:32:10;;;;;;;6.00;4.90;;;;;;;20.56;77.63;102471.16;5112590;28;20273;-75
2022/08/10 05:34:36;;;;;;;6.05;4.40;;;;;;;20.73;76.85;102472.03;5111983;28;20315;-76
2022/08/10 05:37:01;;;;;;;6.43;4.67;;;;;;;20.89;76.25;102475.88;5112386;28;20019;-76
2022/08/10 05:39:26;;;;;;;8.52;4.55;;;;;;;21.21;74.26;102475.38;5094196;28;20330;-75
2022/08/10 05:41:53;;;;;;;10.60;5.10;;;;;;;21.59;72.76;102480.13;5111635;28;20412;-75
2022/08/10 05:44:22;;;;;;;6.28;4.47;;;;;;;21.95;71.15;102476.84;5112538;28;20036;-76
2022/08/10 05:46:48;;;;;;;7.80;4.43;;;;;;;22.39;68.96;102476.97;5111654;28;20110;-75
2022/08/10 05:49:14;;;;;;;7.03;5.03;;;;;;;22.61;67.37;102478.88;5094122;28;20123;-75
2022/08/10 05:51:39;;;;;;;6.22;4.60;;;;;;;22.85;67.90;102472.09;5112374;28;20031;-75
2022/08/10 05:54:13;;;;;;;6.55;5.07;;;;;;;23.12;65.29;102472.88;5093627;28;20509;-76
2022/08/10 05:56:41;;;;;;;7.72;4.63;;;;;;;23.26;65.35;102477.94;5112379;28;20490;-76
2022/08/10 05:59:09;;;;;;;8.00;4.82;;;;;;;23.49;63.96;102481.16;5111450;28;20040;-76
2022/08/10 06:01:39;;;;;;;10.88;4.78;;;;;;;23.81;63.57;102469.41;5112181;28;20027;-76
2022/08/10 06:04:06;;;;;;;10.93;5.28;;;;;;;24.29;62.23;102476.56;5093381;28;20043;-76
2022/08/10 06:06:33;;;;;;;10.07;4.85;;;;;;;24.75;59.45;102482.19;5112108;28;20075;-76
2022/08/10 06:08:59;;;;;;;9.05;5.10;;;;;;;24.80;58.82;102479.47;5112106;28;20046;-75
2022/08/10 06:15:01;;;;;;;6.88;4.93;;;;;;;25.25;56.22;102472.47;5112410;28;20034;-75
2022/08/10 06:17:28;;;;;;;6.05;4.20;;;;;;;25.50;55.25;102482.59;5111170;28;20042;-75
2022/08/10 06:19:56;;;;;;;7.47;4.90;;;;;;;25.68;54.83;102482.06;5111916;28;20031;-75
2022/08/10 06:22:22;;;;;;;6.45;4.57;;;;;;;25.88;54.18;102483.97;5111182;28;20126;-75
2022/08/10 06:24:49;;;;;;;11.32;4.60;;;;;;;26.13;53.96;102483.09;5093633;28;20076;-75
2022/08/10 06:27:15;;;;;;;8.10;4.68;;;;;;;25.92;53.39;102480.38;5111939;28;20468;-75
2022/08/10 06:29:43;;;;;;;5.72;5.00;;;;;;;26.05;53.87;102478.19;5111101;28;20074;-75
2022/08/10 06:32:11;;;;;;;5.57;4.40;;;;;;;26.53;54.00;102490.38;5093662;28;20019;-75
2022/08/10 06:34:49;;;;;;;5.63;4.65;;;;;;;26.47;51.96;102483.25;5110991;28;20490;-74
2022/08/10 06:37:19;;;;;;;9.50;5.80;;;;;;;25.75;54.06;102476.31;5111576;28;20031;-74
2022/08/10 06:39:45;;;;;;;6.05;4.95;;;;;;;26.11;52.74;102475.13;5110891;28;20078;-75
2022/08/10 06:45:55;;;;;;;8.68;5.25;;;;;;;25.72;52.47;102471.38;5111230;28;20636;-75
2022/08/10 06:48:26;;;;;;;6.10;5.43;;;;;;;25.56;53.33;102484.25;5092633;28;20028;-75
2022/08/10 06:50:56;;;;;;;8.05;5.18;;;;;;;25.76;53.43;102477.97;5111430;28;20063;-75
2022/08/10 06:53:27;;;;;;;7.50;5.72;;;;;;;26.24;51.88;102479.19;5093505;28;20091;-75
2022/08/10 06:56:00;;;;;;;6.50;5.28;;;;;;;26.58;50.63;102478.53;5114960;28;20080;-75
2022/08/10 06:58:33;;;;;;;6.85;4.97;;;;;;;26.91;49.99;102485.25;5114242;28;20511;-75
2022/08/10 07:01:01;;;;;;;;;;;;;;;27.21;50.69;102485.06;5115480;28;20028;-75
2022/08/10 07:03:32;;;;;;;6.63;5.30;;;;;;;27.40;47.98;102483.25;5096337;28;20015;-75
2022/08/10 07:05:59;;;;;;;6.30;5.63;;;;;;;27.39;49.05;102483.53;5096683;28;20044;-75
2022/08/10 07:08:27;;;;;;;6.72;5.38;;;;;;;28.15;47.03;102495.75;5114942;28;20032;-75
2022/08/10 07:10:53;;;;;;;8.15;5.47;;;;;;;28.56;44.58;102491.41;5113985;28;20032;-75
2022/08/10 07:13:19;;;;;;;5.50;5.00;;;;;;;29.05;43.14;102492.16;5096397;28;20027;-75
2022/08/10 07:15:48;;;;;;;8.13;5.60;;;;;;;29.49;43.41;102489.81;5113907;28;20076;-75
2022/08/10 07:18:14;;;;;;;13.55;5.47;;;;;;;30.00;42.02;102496.31;5114818;28;20053;-75
2022/08/10 07:20:41;;;;;;;6.63;6.03;;;;;;;30.08;41.01;102502.00;5113934;28;20031;-74
2022/08/10 07:23:10;;;;;;;7.32;5.40;;;;;;;30.00;40.91;102499.88;5114584;28;20391;-75
2022/08/10 07:25:38;;;;;;;8.77;4.82;;;;;;;30.83;38.61;102490.47;5114636;28;20023;-75
2022/08/10 07:28:04;;;;;;;10.20;5.35;;;;;;;31.72;37.49;102486.94;5113773;28;20036;-75
2022/08/10 07:33:53;;;;;;;8.40;5.03;;;;;;;32.00;36.47;102503.34;5114459;28;20058;-75
2022/08/10 07:36:21;;;;;;;6.82;4.50;;;;;;;32.01;36.50;102496.66;5114431;28;20073;-75
2022/08/10 07:38:50;;;;;;;6.82;5.05;;;;;;;32.05;34.69;102501.25;5113600;28;20451;-75
2022/08/10 07:41:18;;;;;;;6.47;4.70;;;;;;;32.24;34.87;102503.75;5114312;28;20036;-74
2022/08/10 07:43:45;;;;;;;7.28;4.78;;;;;;;32.33;34.32;102501.03;5113836;28;20024;-75
2022/08/10 07:46:13;;;;;;;6.13;4.63;;;;;;;32.58;34.00;102489.19;5114057;28;20114;-75
2022/08/10 07:48:42;;;;;;;9.60;5.03;;;;;;;32.42;33.77;102498.31;5096038;28;20488;-75
2022/08/10 07:51:09;;;;;;;7.15;5.20;;;;;;;32.37;33.62;102493.72;5113408;28;20050;-75
2022/08/10 07:53:41;;;;;;;6.63;4.35;;;;;;;32.32;34.49;102491.91;5114206;28;20028;-74
2022/08/10 07:56:08;;;;;;;;;;;;;;;33.02;34.78;102495.63;5113864;28;20499;-75
2022/08/10 07:58:38;;;;;;;8.45;5.15;;;;;;;32.87;33.11;102493.34;5114153;28;19964;-74
2022/08/10 08:01:03;;;;;;;7.72;4.80;;;;;;;32.41;33.44;102500.25;5095906;28;20471;-74
2022/08/10 08:03:31;;;;;;;6.43;4.68;;;;;;;31.81;34.82;102500.81;5113168;28;20052;-75
2022/08/10 08:09:19;;;;;;;6.03;4.77;;;;;;;32.93;32.88;102503.09;5114340;28;20050;-75
2022/08/10 08:15:10;;;;;;;7.97;4.18;;;;;;;34.69;30.42;102499.94;5114211;28;20043;-74
2022/08/10 08:21:00;;;;;;;8.85;4.72;;;;;;;36.09;27.85;102506.63;5114194;28;20081;-74
2022/08/10 08:26:47;;;;;;;7.40;5.00;;;;;;;35.80;27.76;102513.19;5114343;28;20054;-74
2022/08/10 08:32:37;;;;;;;4.90;4.05;;;;;;;35.09;28.92;102505.88;5114054;28;20101;-74
2022/08/10 08:35:11;;;;;;;5.88;4.43;;;;;;;35.52;28.96;102501.88;5113544;28;20039;-74
2022/08/10 08:37:39;;;;;;;5.82;4.00;;;;;;;36.45;27.06;102500.25;5094800;28;20476;-74
2022/08/10 08:40:09;;;;;;;6.97;4.20;;;;;;;37.45;25.67;102497.59;5113359;28;20412;-75
2022/08/10 08:42:53;;;;;;;7.78;4.18;;;;;;;38.34;25.71;102499.88;5095209;28;20388;-75
2022/08/10 08:45:54;;;;;;;5.80;4.43;;;;;;;37.59;26.58;102499.94;5095119;28;20027;-73
2022/08/10 08:48:19;;;;;;;6.82;3.75;;;;;;;37.64;25.24;102494.13;5073251;28;20044;-75
2022/08/10 08:54:22;;;;;;;7.25;3.70;;;;;;;38.93;24.27;102505.19;5113225;28;20043;-75
2022/08/10 09:00:16;;;;;;;6.05;4.20;;;;;;;39.50;22.72;102503.53;5113214;28;20043;-76
2022/08/10 09:03:01;;;;;;;6.80;4.13;;;;;;;39.35;23.56;102496.03;5112854;28;20031;-75
2022/08/10 09:09:20;;;;;;;5.78;3.97;;;;;;;39.24;23.16;102498.63;5113356;28;20134;-74
2022/08/10 09:12:19;;;;;;;5.10;3.88;;;;;;;38.28;24.25;102487.34;5112101;28;20031;-74
2022/08/10 09:14:51;;;;;;;6.10;3.65;;;;;;;38.12;24.07;102490.13;5112971;28;20160;-74
2022/08/10 09:17:27;;;;;;;6.45;3.65;;;;;;;38.33;24.03;102484.28;5111610;28;20392;-74
2022/08/10 09:20:00;;;;;;;7.18;3.72;;;;;;;38.48;23.35;102477.03;5112934;28;20038;-74
2022/08/10 09:22:39;;;;;;;5.68;3.58;;;;;;;38.13;23.15;102481.38;5111962;28;20526;-74
2022/08/10 09:25:20;;;;;;;5.43;3.33;;;;;;;37.44;24.81;102468.88;5112851;28;20028;-75
2022/08/10 09:27:59;;;;;;;6.53;3.83;;;;;;;36.94;25.25;102471.44;5111689;28;20046;-74
2022/08/10 09:30:30;;;;;;;5.00;3.22;;;;;;;37.00;24.39;102464.41;5112849;28;20364;-75
2022/08/10 09:33:07;;;;;;;6.65;3.70;;;;;;;36.77;26.38;102466.94;5112765;28;20034;-75
2022/08/10 09:36:18;;;;;;;6.70;3.63;;;;;;;36.18;26.50;102453.59;5107189;28;20117;-75
2022/08/10 09:38:52;;;;;;;6.28;3.20;;;;;;;35.69;26.41;102457.16;5080910;28;20040;-75
2022/08/10 09:42:06;;;;;;;8.68;3.17;;;;;;;36.17;26.83;102458.34;5106983;28;20035;-75
2022/08/10 09:44:45;;;;;;;6.35;3.42;;;;;;;35.82;26.62;102457.13;5019190;28;20093;-74
2022/08/10 09:47:31;;;;;;;5.55;3.03;;;;;;;35.07;27.89;102463.69;5112238;28;20399;-75
2022/08/10 09:50:21;;;;;;;5.30;3.30;;;;;;;34.67;27.95;102451.41;5112475;28;20503;-75
2022/08/10 09:53:06;;;;;;;6.93;3.10;;;;;;;33.97;28.79;102445.47;5102768;28;20032;-74
2022/08/10 09:55:42;;;;;;;7.32;3.30;;;;;;;33.07;29.83;102453.06;5112442;28;20392;-76
2022/08/10 09:58:26;;;;;;;9.50;3.42;;;;;;;32.22;32.83;102444.31;5093486;28;20043;-74
2022/08/10 10:01:26;;;;;;;5.57;3.28;;;;;;;31.68;32.66;102444.41;5112531;28;20501;-75
2022/08/10 10:04:08;;;;;;;6.72;3.53;;;;;;;31.09;33.01;102438.19;5111343;28;20032;-74
2022/08/10 10:06:52;;;;;;;6.78;3.45;;;;;;;30.13;34.92;102440.34;5112227;28;20464;-74
2022/08/10 10:09:30;;;;;;;7.00;3.63;;;;;;;29.76;36.69;102427.53;5111413;28;20044;-75
2022/08/10 10:12:14;;;;;;;7.05;3.35;;;;;;;30.26;36.04;102431.22;5093890;28;20080;-75
2022/08/10 10:18:01;;;;;;;7.50;3.92;;;;;;;29.77;35.14;102420.88;5111870;28;20085;-73
2022/08/10 10:20:36;;;;;;;6.57;3.58;;;;;;;29.63;36.05;102415.38;5093231;28;20051;-75
2022/08/10 10:23:39;;;;;;;5.00;3.47;;;;;;;29.84;34.29;102419.38;5111830;28;20024;-75
2022/08/10 10:26:12;;;;;;;10.05;3.72;;;;;;;29.89;34.92;102411.00;5111158;28;20566;-75
2022/08/10 10:28:52;;;;;;;9.52;3.60;;;;;;;30.04;32.96;102409.88;5112657;28;20028;-75
2022/08/10 10:31:28;;;;;;;8.93;3.35;;;;;;;29.93;33.97;102405.69;5114715;28;20051;-75
2022/08/10 10:34:27;;;;;;;7.10;3.38;;;;;;;29.79;34.42;102407.63;5097024;28;20472;-74
2022/08/10 10:36:55;;;;;;;11.00;3.55;;;;;;;29.46;35.46;102404.91;5114478;28;20043;-75
2022/08/10 10:39:23;;;;;;;5.35;3.60;;;;;;;29.30;34.53;102406.31;5115266;28;20030;-75
2022/08/10 10:41:51;;;;;;;6.00;3.83;;;;;;;29.21;34.56;102400.69;5115336;28;20027;-75
2022/08/10 10:47:57;;;;;;;5.43;4.00;;;;;;;29.10;37.42;102393.69;5115394;28;20084;-74
2022/08/10 10:50:38;;;;;;;7.53;3.60;;;;;;;29.17;36.17;102387.78;5114348;28;20078;-74
2022/08/10 10:56:43;;;;;;;7.35;3.60;;;;;;;28.95;35.04;102385.69;5115252;28;20056;-75
2022/08/10 10:59:25;;;;;;;6.20;3.10;;;;;;;28.99;33.85;102372.94;5115045;28;20456;-74
2022/08/10 11:01:57;;;;;;;7.38;3.38;;;;;;;29.04;37.14;102372.84;5114193;28;20046;-74
2022/08/10 11:04:26;;;;;;;9.17;4.00;;;;;;;28.87;34.91;102383.59;5115151;28;20024;-74
2022/08/10 11:07:16;;;;;;;6.75;4.00;;;;;;;28.80;35.19;102374.88;5114129;28;20039;-74
2022/08/10 11:09:47;;;;;;;8.23;3.80;;;;;;;29.13;34.74;102365.53;5114852;28;20054;-75
2022/08/10 11:12:38;;;;;;;6.70;3.45;;;;;;;29.28;34.09;102368.03;5113990;28;20501;-74
2022/08/10 11:18:51;;;;;;;5.65;3.70;;;;;;;29.11;35.61;102359.50;5114321;28;20177;-74
2022/08/10 11:21:25;;;;;;;7.13;3.47;;;;;;;29.16;35.37;102361.34;5072604;28;20476;-75
2022/08/10 11:24:01;;;;;;;7.88;3.92;;;;;;;29.21;34.15;102350.25;5113851;28;20126;-75
2022/08/10 11:26:47;;;;;;;5.80;3.35;;;;;;;29.33;34.23;102350.56;5114591;28;20031;-75
2022/08/10 11:29:21;;;;;;;5.05;3.50;;;;;;;29.42;34.96;102334.13;5113780;28;20048;-75
2022/08/10 11:31:54;;;;;;;9.40;3.83;;;;;;;29.41;33.66;102349.03;5114501;28;20452;-75
2022/08/10 11:34:49;;;;;;;5.20;3.72;;;;;;;29.28;33.42;102350.66;5114017;28;20055;-74
2022/08/10 11:37:24;;;;;;;4.72;3.53;;;;;;;29.30;33.79;102356.69;5114349;28;20032;-75
2022/08/10 11:40:11;;;;;;;6.00;3.75;;;;;;;29.40;34.99;102356.50;5114107;28;20066;-75
2022/08/10 11:43:07;;;;;;;5.03;3.53;;;;;;;29.58;33.98;102354.81;5111605;28;20497;-74
2022/08/10 11:45:35;;;;;;;4.28;3.25;;;;;;;29.34;34.51;102346.69;5114353;28;20027;-75
2022/08/10 11:48:06;;;;;;;4.53;3.42;;;;;;;29.43;34.03;102344.84;5113564;28;20039;-75
2022/08/10 11:50:38;;;;;;;7.15;3.70;;;;;;;29.17;34.67;102340.94;5114314;28;20028;-75
2022/08/10 11:53:16;;;;;;;7.03;3.63;;;;;;;29.23;34.63;102334.22;5113405;28;20051;-75
2022/08/10 11:55:48;;;;;;;5.63;3.45;;;;;;;29.88;33.35;102345.91;5114187;28;20038;-76
2022/08/10 12:01:36;;;;;;;8.55;3.58;;;;;;;30.50;32.10;102318.59;5114292;28;20089;-76
2022/08/10 12:04:06;;;;;;;5.38;3.45;;;;;;;31.68;29.26;102328.22;5113211;28;20043;-76
2022/08/10 12:06:33;;;;;;;5.60;3.45;;;;;;;33.47;27.41;102337.94;5114041;28;20028;-75
2022/08/10 12:09:00;;;;;;;5.20;3.83;;;;;;;34.11;26.16;102332.19;5113267;28;20035;-75
2022/08/10 12:15:00;;;;;;;11.10;3.70;;;;;;;33.35;28.46;102323.97;5114281;28;20093;-75
2022/08/10 12:17:32;;;;;;;5.35;3.22;;;;;;;32.80;28.33;102322.00;5113723;28;20599;-76
2022/08/10 12:20:09;;;;;;;8.02;3.78;;;;;;;31.61;29.85;102325.09;5113708;28;20038;-75
2022/08/10 12:22:49;;;;;;;3.90;3.40;;;;;;;31.00;32.03;102323.19;5112890;28;20110;-75
2022/08/10 12:25:24;;;;;;;6.03;3.50;;;;;;;30.22;33.14;102308.78;5113752;28;20074;-75
2022/08/10 12:27:53;;;;;;;5.72;3.35;;;;;;;29.71;32.66;102306.28;5112869;28;20097;-75
2022/08/10 12:30:28;;;;;;;4.78;3.17;;;;;;;29.72;33.33;102308.72;5113537;28;20114;-75
2022/08/10 12:32:53;;;;;;;4.25;3.47;;;;;;;29.71;33.38;102318.13;5112798;28;20545;-75
2022/08/10 12:35:26;;;;;;;5.37;3.93;;;;;;;29.18;35.61;102306.75;5113587;28;20031;-75
2022/08/10 12:38:07;;;;;;;6.63;3.50;;;;;;;29.27;35.39;102297.50;5113353;28;20437;-75
2022/08/10 12:40:41;;;;;;;7.07;3.60;;;;;;;29.68;35.41;102293.94;5113478;28;20519;-75
2022/08/10 12:46:33;;;;;;;5.28;3.45;;;;;;;30.64;31.90;102298.41;5113733;28;20068;-76
2022/08/10 12:52:27;;;;;;;10.80;3.55;;;;;;;29.74;32.48;102281.66;5113054;28;20077;-74
2022/08/10 12:58:18;;;;;;;4.60;3.67;;;;;;;29.40;34.89;102284.00;5113157;28;20038;-75
2022/08/10 13:04:14;;;;;;;7.57;3.70;;;;;;;29.58;35.09;102277.59;5113125;28;20084;-75
2022/08/10 13:10:11;;;;;;;7.05;3.50;;;;;;;29.77;34.17;102267.25;5113461;28;20309;-74
2022/08/10 13:15:59;;;;;;;7.25;3.65;;;;;;;29.48;33.42;102272.28;5113173;28;20043;-73
2022/08/10 13:25:18;;;;;;;4.13;2.70;;;;;;;29.79;34.70;102255.94;5113470;28;20084;-75
2022/08/10 13:31:19;;;;;;;4.68;2.92;;;;;;;30.26;32.91;102245.47;5112834;28;20042;-73
2022/08/10 13:37:08;;;;;;;7.47;3.60;;;;;;;30.52;31.78;102239.00;5112933;28;20074;-76
2022/08/10 13:42:58;;;;;;;4.32;3.38;;;;;;;30.76;31.76;102230.41;5112899;28;20100;-75
2022/08/10 13:45:26;;;;;;;5.63;3.38;;;;;;;30.82;31.41;102228.31;5112428;28;20047;-75
2022/08/10 13:51:15;;;;;;;4.72;3.22;;;;;;;30.74;30.85;102212.53;5112816;28;20097;-76
2022/08/10 13:53:41;;;;;;;3.72;3.20;;;;;;;30.37;31.50;102220.09;5093486;28;20099;-74
2022/08/10 13:59:29;;;;;;;3.45;2.90;;;;;;;30.08;32.29;102212.25;5112854;28;20623;-75
2022/08/10 14:01:59;;;;;;;6.70;3.30;;;;;;;29.90;31.06;102205.72;5094006;28;20077;-74
2022/08/10 14:07:46;;;;;;;6.07;2.83;;;;;;;29.82;31.41;102203.72;5116257;28;20049;-75
2022/08/10 14:10:14;;;;;;;3.72;3.08;;;;;;;29.82;30.80;102197.38;5114993;28;20040;-74
2022/08/10 14:16:06;;;;;;;4.22;2.90;;;;;;;29.88;30.95;102191.44;5115751;28;20046;-75
2022/08/10 14:21:53;;;;;;;4.93;3.42;;;;;;;29.76;31.09;102177.34;5115981;28;20051;-75
2022/08/10 14:27:44;;;;;;;6.38;3.10;;;;;;;29.66;30.75;102180.38;5115832;28;20096;-73
2022/08/10 14:33:32;;;;;;;4.68;2.78;;;;;;;29.45;30.60;102176.41;5115908;28;20037;-75
2022/08/10 14:39:30;;;;;;;4.53;2.97;;;;;;;29.45;31.62;102166.22;5115654;28;20066;-75
2022/08/10 14:41:58;;;;;;;6.50;2.97;;;;;;;29.47;30.76;102176.94;5115335;28;20035;-75
2022/08/10 14:47:46;;;;;;;5.20;2.60;;;;;;;29.49;31.72;102169.16;5115450;28;20058;-75
2022/08/10 14:50:19;;;;;;;4.57;3.13;;;;;;;29.48;31.16;102148.22;5096376;28;20372;-75
2022/08/10 14:52:47;;;;;;;4.60;2.60;;;;;;;29.54;31.98;102155.28;5096768;28;20039;-76
2022/08/10 15:02:03;;;;;;;8.80;3.10;;;;;;;29.44;32.03;102158.22;5115261;28;20038;-75
2022/08/10 15:07:51;;;;;;;4.65;2.65;;;;;;;29.47;32.02;102155.69;5115369;28;20054;-75
2022/08/10 15:13:43;;;;;;;4.40;2.33;;;;;;;29.67;29.79;102164.63;5111805;28;20055;-74
2022/08/10 15:19:38;;;;;;;4.25;2.65;;;;;;;29.41;32.12;102156.91;5115143;28;20084;-74
2022/08/10 15:25:27;;;;;;;5.47;2.53;;;;;;;29.44;30.53;102149.94;5114386;28;20046;-74
2022/08/10 15:31:20;;;;;;;4.35;2.40;;;;;;;29.54;29.49;102152.53;5115137;28;20051;-74
2022/08/10 15:37:13;;;;;;;2.97;2.15;;;;;;;29.54;30.27;102144.25;5114724;28;20510;-74
2022/08/10 15:43:04;;;;;;;3.35;2.10;;;;;;;29.60;29.72;102140.25;5114157;28;20046;-74
2022/08/10 15:48:59;;;;;;;4.35;2.03;;;;;;;29.70;29.37;102137.25;5114653;28;20059;-72
2022/08/10 15:54:57;;;;;;;7.97;2.50;;;;;;;29.60;30.59;102127.28;5114003;28;20047;-74
2022/08/10 16:00:57;;;;;;;2.75;2.20;;;;;;;29.75;30.51;102126.09;5113762;28;20055;-75
2022/08/10 16:06:55;;;;;;;3.45;2.40;;;;;;;29.58;30.43;102124.03;5114314;28;20112;-74
2022/08/10 16:09:26;;;;;;;4.47;2.25;;;;;;;29.44;29.84;102130.66;5113936;28;20384;-75